Time;durP1;ratioP1;P1;durP2;ratioP2;P2;SDS_P1;SDS_P2;PMS_P1;PMS_P2;Temp;Humidity;BMP_temperature;BMP_pressure;BME280_temperature;BME280_humidity;BME280_pressure;Samples;Min_cycle;Max_cycle;Signal;HPM_P1;HPM_P2
2021/10/24 00:00:33;;;;;;;10.80;3.17;;;;;;;8.62;46.26;102716.28;5068296;28;20036;-69
2021/10/24 00:02:59;;;;;;;5.65;2.50;;;;;;;8.52;46.71;102711.09;5075622;28;20047;-67
2021/10/24 00:05:24;;;;;;;5.47;2.47;;;;;;;8.55;46.81;102708.47;5079416;28;20123;-67
2021/10/24 00:07:50;;;;;;;9.13;2.75;;;;;;;8.74;46.18;102716.31;5076258;28;20740;-68
2021/10/24 00:10:15;;;;;;;6.10;2.80;;;;;;;8.72;46.34;102712.84;5068309;28;20524;-69
2021/10/24 00:12:41;;;;;;;9.63;3.42;;;;;;;8.53;46.64;102715.41;5075000;28;20123;-68
2021/10/24 00:15:07;;;;;;;11.13;3.15;;;;;;;8.63;46.63;102707.56;5079066;28;20032;-69
2021/10/24 00:17:32;;;;;;;9.43;2.92;;;;;;;8.70;46.11;102711.94;5066018;28;20032;-70
2021/10/24 00:19:58;;;;;;;9.38;3.03;;;;;;;8.63;46.91;102712.78;5078474;28;20491;-68
2021/10/24 00:22:23;;;;;;;10.45;3.05;;;;;;;8.66;46.57;102707.59;5063720;28;20039;-69
2021/10/24 00:24:49;;;;;;;10.43;3.25;;;;;;;8.69;46.53;102711.03;5062504;28;20134;-69
2021/10/24 00:27:14;;;;;;;8.80;3.30;;;;;;;8.47;46.91;102707.63;5074214;28;20064;-66
2021/10/24 00:29:40;;;;;;;7.10;3.10;;;;;;;8.70;46.56;102709.31;5051224;28;20115;-70
2021/10/24 00:32:06;;;;;;;12.68;4.13;;;;;;;8.82;46.39;102713.66;5049077;28;20154;-69
2021/10/24 00:34:33;;;;;;;7.30;3.83;;;;;;;8.62;46.33;102709.31;5051326;28;20075;-68
2021/10/24 00:36:58;;;;;;;7.97;3.50;;;;;;;8.68;46.46;102700.63;5047245;28;20037;-69
2021/10/24 00:39:24;;;;;;;9.70;2.63;;;;;;;8.70;46.61;102704.09;5066209;28;20431;-68
2021/10/24 00:41:50;;;;;;;9.18;3.30;;;;;;;8.70;46.32;102704.09;5074219;28;20071;-68
2021/10/24 00:44:24;;;;;;;9.35;2.90;;;;;;;7.85;47.96;102701.59;5044953;28;20028;-68
2021/10/24 00:46:51;;;;;;;14.10;3.47;;;;;;;8.52;46.61;102705.88;5056688;28;20044;-67
2021/10/24 00:49:18;;;;;;;13.63;3.38;;;;;;;8.67;46.52;102704.09;5075354;28;20031;-68
2021/10/24 00:51:44;;;;;;;10.48;3.28;;;;;;;8.59;46.56;102696.31;5063436;28;20055;-68
2021/10/24 00:54:12;;;;;;;8.13;3.63;;;;;;;8.57;47.06;102703.25;5065487;28;20067;-68
2021/10/24 00:56:40;;;;;;;7.10;3.35;;;;;;;8.47;47.07;102701.53;5064380;28;20039;-69
2021/10/24 00:59:10;;;;;;;10.15;3.45;;;;;;;8.50;47.03;102698.94;5070985;28;20056;-67
2021/10/24 01:01:36;;;;;;;11.25;3.88;;;;;;;8.45;47.04;102703.28;5068122;28;20046;-68
2021/10/24 01:04:03;;;;;;;9.82;3.67;;;;;;;8.52;46.68;102695.47;5074042;28;20040;-67
2021/10/24 01:06:31;;;;;;;10.73;4.93;;;;;;;8.57;46.68;102693.69;5057352;28;20032;-68
2021/10/24 01:08:56;;;;;;;11.93;3.20;;;;;;;8.77;46.23;102695.41;5054963;28;20040;-69
2021/10/24 01:11:24;;;;;;;7.03;3.75;;;;;;;8.48;46.72;102690.25;5067284;28;20067;-69
2021/10/24 01:13:50;;;;;;;9.40;4.10;;;;;;;8.70;46.22;102686.72;5057076;28;20033;-69
2021/10/24 01:16:17;;;;;;;6.40;3.00;;;;;;;8.65;46.58;102684.97;5075891;28;20123;-69
2021/10/24 01:18:44;;;;;;;9.13;4.05;;;;;;;8.66;46.30;102687.59;5039223;28;20059;-69
2021/10/24 01:21:11;;;;;;;8.85;3.92;;;;;;;8.50;46.56;102686.78;5051006;28;20036;-70
2021/10/24 01:23:37;;;;;;;11.65;3.72;;;;;;;8.73;46.34;102685.88;5049589;28;20808;-68
2021/10/24 01:26:04;;;;;;;9.35;4.22;;;;;;;8.52;46.45;102678.97;5066935;28;20558;-69
2021/10/24 01:28:30;;;;;;;10.75;3.47;;;;;;;8.71;46.33;102682.41;5046576;28;20074;-70
2021/10/24 01:30:56;;;;;;;13.80;5.53;;;;;;;8.82;46.15;102679.75;5055020;28;20032;-71
2021/10/24 01:33:22;;;;;;;10.57;3.33;;;;;;;8.87;46.09;102681.47;5057944;28;20041;-71
2021/10/24 01:36:06;;;;;;;7.18;3.72;;;;;;;8.71;46.24;102677.19;5057527;28;20047;-67
2021/10/24 01:38:32;;;;;;;6.00;3.42;;;;;;;8.83;45.51;102673.66;5056086;28;20456;-69
2021/10/24 01:40:58;;;;;;;7.90;3.72;;;;;;;8.72;46.20;102671.97;5060092;28;20037;-69
2021/10/24 01:43:25;;;;;;;7.75;3.45;;;;;;;8.66;46.17;102671.97;5045236;28;20033;-68
2021/10/24 01:45:51;;;;;;;9.85;3.65;;;;;;;8.67;45.89;102671.09;5042384;28;20036;-69
2021/10/24 01:48:20;;;;;;;11.88;4.10;;;;;;;8.71;45.82;102662.41;5062913;28;20035;-68
2021/10/24 01:50:47;;;;;;;14.93;4.70;;;;;;;8.84;45.46;102659.75;5062488;28;20048;-69
2021/10/24 01:53:19;;;;;;;8.38;3.97;;;;;;;8.85;45.27;102654.56;5055357;28;20028;-68
2021/10/24 01:55:45;;;;;;;12.65;3.75;;;;;;;8.68;45.41;102648.50;5049615;28;20034;-67
2021/10/24 01:58:12;;;;;;;9.77;4.43;;;;;;;8.76;45.19;102649.34;5065214;28;20047;-70
2021/10/24 02:00:38;;;;;;;9.38;4.30;;;;;;;8.77;45.32;102651.09;5060674;28;20043;-69
2021/10/24 02:03:04;;;;;;;10.85;4.07;;;;;;;8.73;45.45;102646.75;5056374;28;20101;-68
2021/10/24 02:05:32;;;;;;;12.25;3.63;;;;;;;8.80;45.29;102651.06;5063963;28;20032;-68
2021/10/24 02:07:58;;;;;;;8.63;4.10;;;;;;;8.82;45.21;102646.72;5048052;28;20472;-68
2021/10/24 02:10:25;;;;;;;10.70;3.80;;;;;;;8.52;45.74;102655.50;5055933;28;20028;-68
2021/10/24 02:12:52;;;;;;;7.32;4.10;;;;;;;8.65;45.26;102638.06;5062170;28;20039;-67
2021/10/24 02:15:21;;;;;;;11.77;3.90;;;;;;;8.55;45.62;102656.34;5054256;28;20028;-70
2021/10/24 02:17:47;;;;;;;10.77;3.50;;;;;;;8.74;44.89;102645.91;5056157;28;20040;-70
2021/10/24 02:20:15;;;;;;;11.93;4.22;;;;;;;8.44;45.20;102650.28;5065371;28;20066;-69
2021/10/24 02:22:43;;;;;;;11.48;3.75;;;;;;;8.64;45.30;102641.56;5062025;28;20040;-68
2021/10/24 02:25:17;;;;;;;13.05;3.45;;;;;;;8.56;45.36;102647.69;5050443;28;20055;-68
2021/10/24 02:27:44;;;;;;;7.55;3.72;;;;;;;8.69;45.13;102650.22;5047601;28;20032;-68
2021/10/24 02:30:11;;;;;;;14.80;5.57;;;;;;;8.78;44.86;102639.78;5063024;28;20143;-69
2021/10/24 02:32:37;;;;;;;5.68;3.25;;;;;;;8.54;45.66;102641.59;5062920;28;20721;-68
2021/10/24 02:35:06;;;;;;;7.85;3.85;;;;;;;8.62;45.38;102632.88;5048236;28;20100;-69
2021/10/24 02:37:43;;;;;;;7.30;4.22;;;;;;;8.72;45.13;102635.47;5062624;28;20032;-68
2021/10/24 02:40:13;;;;;;;8.95;4.55;;;;;;;8.76;44.55;102625.88;5048346;28;20051;-68
2021/10/24 02:42:41;;;;;;;10.77;3.97;;;;;;;8.66;44.74;102624.19;5059106;28;20028;-67
2021/10/24 02:45:07;;;;;;;7.82;3.88;;;;;;;8.73;44.65;102631.13;5045592;28;20092;-68
2021/10/24 02:47:33;;;;;;;10.27;4.53;;;;;;;8.65;44.88;102622.44;5067179;22;20041;-64
2021/10/24 02:49:59;;;;;;;14.07;4.40;;;;;;;8.60;44.92;102629.41;5061591;28;20040;-64
2021/10/24 02:52:24;;;;;;;11.98;4.47;;;;;;;8.57;44.80;102627.69;5077528;28;20176;-65
2021/10/24 02:54:50;;;;;;;12.15;5.13;;;;;;;8.62;44.46;102622.44;5080293;28;20055;-64
2021/10/24 02:57:16;;;;;;;18.48;8.10;;;;;;;8.53;44.87;102619.00;5085912;28;20047;-64
2021/10/24 02:59:42;;;;;;;50.63;29.85;;;;;;;8.48;45.14;102619.91;5084944;28;20097;-65
2021/10/24 03:02:07;;;;;;;72.53;44.25;;;;;;;8.41;45.39;102623.41;5066937;28;20028;-65
2021/10/24 03:04:34;;;;;;;50.72;34.15;;;;;;;8.31;45.11;102626.00;5045674;28;20087;-64
2021/10/24 03:06:59;;;;;;;56.28;40.50;;;;;;;8.31;45.23;102622.53;5047395;28;20485;-65
2021/10/24 03:09:25;;;;;;;79.93;52.20;;;;;;;8.23;45.18;102624.31;5049480;28;20120;-64
2021/10/24 03:11:51;;;;;;;53.80;36.75;;;;;;;7.98;45.76;102621.75;5042966;28;20031;-65
2021/10/24 03:14:17;;;;;;;63.28;41.35;;;;;;;8.03;44.98;102622.59;5047322;28;20032;-65
2021/10/24 03:16:43;;;;;;;165.18;67.25;;;;;;;7.99;45.30;102626.06;5039260;28;20028;-65
2021/10/24 03:19:10;;;;;;;111.18;48.35;;;;;;;7.82;45.49;102630.44;5054865;28;20147;-65
2021/10/24 03:21:38;;;;;;;68.28;31.10;;;;;;;7.76;45.74;102627.81;5059963;28;20340;-64
2021/10/24 03:24:04;;;;;;;30.33;12.10;;;;;;;7.46;46.36;102635.56;5078824;28;20044;-65
2021/10/24 03:26:31;;;;;;;21.90;9.27;;;;;;;7.49;46.33;102627.78;5056859;28;20036;-64
2021/10/24 03:28:58;;;;;;;19.42;7.57;;;;;;;7.36;46.37;102625.19;5045776;28;20420;-65
2021/10/24 03:31:23;;;;;;;14.13;4.47;;;;;;;7.26;46.69;102627.75;5082664;28;20130;-65
2021/10/24 03:33:49;;;;;;;13.98;5.60;;;;;;;7.21;46.67;102623.41;5066440;28;20052;-65
2021/10/24 03:36:16;;;;;;;9.52;4.03;;;;;;;7.09;47.09;102625.13;5065615;28;20043;-65
2021/10/24 03:38:42;;;;;;;5.32;3.75;;;;;;;7.07;47.27;102633.78;5075869;28;20036;-66
2021/10/24 03:41:11;;;;;;;9.52;4.85;;;;;;;6.98;47.28;102625.97;5069532;28;20090;-66
2021/10/24 03:43:36;;;;;;;10.23;4.20;;;;;;;6.87;47.50;102624.19;5044553;28;20044;-64
2021/10/24 03:46:02;;;;;;;8.75;4.10;;;;;;;6.81;47.89;102631.94;5083383;28;20036;-64
2021/10/24 03:48:28;;;;;;;13.75;4.88;;;;;;;6.70;48.36;102631.03;5070352;28;20043;-64
2021/10/24 03:50:54;;;;;;;10.93;3.65;;;;;;;6.68;48.33;102622.38;5068512;28;20036;-64
2021/10/24 03:53:19;;;;;;;7.05;3.95;;;;;;;6.66;48.09;102629.28;5070571;28;20040;-64
2021/10/24 03:55:46;;;;;;;9.95;3.38;;;;;;;6.56;48.01;102627.53;5066916;28;20039;-64
2021/10/24 03:58:12;;;;;;;8.30;3.85;;;;;;;6.47;48.21;102624.00;5089409;28;20036;-64
2021/10/24 04:00:38;;;;;;;6.68;3.00;;;;;;;6.47;48.33;102621.41;5087060;28;20058;-64
2021/10/24 04:03:08;;;;;;;7.28;3.38;;;;;;;6.39;48.09;102625.69;5067411;28;20067;-64
2021/10/24 04:05:47;;;;;;;11.85;3.45;;;;;;;6.28;48.32;102632.53;5064985;28;20109;-63
2021/10/24 04:08:13;;;;;;;7.55;3.75;;;;;;;6.17;48.63;102628.97;5060037;28;20039;-64
2021/10/24 04:10:39;;;;;;;9.50;3.92;;;;;;;6.07;48.52;102623.72;5049493;28;20049;-65
2021/10/24 04:13:04;;;;;;;10.77;3.97;;;;;;;5.97;48.75;102626.25;5049157;28;20127;-64
2021/10/24 04:15:30;;;;;;;8.00;3.90;;;;;;;5.90;49.27;102624.47;5067016;28;20031;-64
2021/10/24 04:17:57;;;;;;;10.35;4.43;;;;;;;5.90;49.54;102627.94;5047194;28;20040;-63
2021/10/24 04:20:24;;;;;;;11.68;3.03;;;;;;;5.95;49.06;102634.03;5048396;28;20516;-65
2021/10/24 04:22:51;;;;;;;7.90;4.07;;;;;;;5.92;48.80;102625.34;5041751;28;20459;-65
2021/10/24 04:25:17;;;;;;;9.13;3.60;;;;;;;5.89;48.88;102628.78;5053679;28;20032;-65
2021/10/24 04:27:43;;;;;;;7.22;3.22;;;;;;;5.67;49.67;102631.22;5041844;28;20035;-66
2021/10/24 04:30:13;;;;;;;8.15;3.55;;;;;;;5.82;49.10;102616.63;5049704;28;20085;-66
2021/10/24 04:32:41;;;;;;;9.93;3.78;;;;;;;5.87;48.37;102617.53;5047659;28;20121;-67
2021/10/24 04:35:07;;;;;;;8.63;4.05;;;;;;;5.82;48.55;102617.50;5049236;28;20040;-68
2021/10/24 04:37:33;;;;;;;7.80;3.40;;;;;;;5.74;49.08;102619.16;5063635;28;20091;-67
2021/10/24 04:39:59;;;;;;;8.75;4.03;;;;;;;5.78;48.67;102612.28;5049005;28;20441;-65
2021/10/24 04:42:24;;;;;;;9.50;4.00;;;;;;;5.77;48.69;102607.94;5046248;28;20040;-65
2021/10/24 04:44:50;;;;;;;10.88;4.00;;;;;;;5.76;48.34;102608.78;5051877;28;20036;-66
2021/10/24 04:47:17;;;;;;;11.38;3.83;;;;;;;5.72;48.36;102607.03;5047034;28;20504;-65
2021/10/24 04:49:42;;;;;;;9.32;4.07;;;;;;;5.62;48.56;102603.50;5048990;28;20044;-67
2021/10/24 04:52:08;;;;;;;7.40;3.30;;;;;;;5.57;48.38;102599.97;5065186;28;20048;-68
2021/10/24 04:54:35;;;;;;;6.43;3.88;;;;;;;5.54;48.53;102600.81;5067439;28;20607;-67
2021/10/24 04:57:01;;;;;;;6.88;3.33;;;;;;;5.39;48.81;102598.97;5045986;28;20516;-67
2021/10/24 04:59:26;;;;;;;8.70;4.13;;;;;;;5.36;48.92;102595.47;5048227;28;20029;-68
2021/10/24 05:01:52;;;;;;;10.38;2.72;;;;;;;5.35;48.92;102604.13;5067209;28;20077;-68
2021/10/24 05:04:19;;;;;;;7.43;3.22;;;;;;;5.29;48.84;102594.56;5040460;28;20036;-67
2021/10/24 05:06:45;;;;;;;6.15;3.08;;;;;;;5.22;48.73;102598.81;5066396;28;20059;-66
2021/10/24 05:09:11;;;;;;;9.48;3.33;;;;;;;5.06;49.20;102591.75;5048869;28;20040;-66
2021/10/24 05:11:37;;;;;;;6.20;3.15;;;;;;;4.99;49.52;102596.00;5049816;28;21172;-67
2021/10/24 05:14:04;;;;;;;11.00;3.20;;;;;;;4.91;49.32;102591.56;5046766;28;20037;-63
2021/10/24 05:16:30;;;;;;;9.13;3.30;;;;;;;4.88;49.56;102588.91;5048216;28;20032;-65
2021/10/24 05:18:57;;;;;;;8.98;3.88;;;;;;;4.84;50.01;102591.47;5050353;28;20047;-64
2021/10/24 05:21:23;;;;;;;12.18;3.67;;;;;;;4.97;50.00;102594.25;5031021;28;20021;-65
2021/10/24 05:23:48;;;;;;;7.97;4.72;;;;;;;4.90;49.92;102595.00;5065145;28;20032;-65
2021/10/24 05:26:14;;;;;;;13.20;3.72;;;;;;;4.83;50.06;102589.72;5048361;28;20039;-64
2021/10/24 05:28:39;;;;;;;10.07;3.78;;;;;;;4.83;50.08;102584.56;5042132;28;20704;-65
2021/10/24 05:31:05;;;;;;;10.45;3.88;;;;;;;4.83;50.14;102588.84;5046992;28;20029;-65
2021/10/24 05:33:33;;;;;;;11.07;3.70;;;;;;;4.81;50.03;102581.06;5030932;28;20113;-65
2021/10/24 05:36:21;;;;;;;9.57;3.67;;;;;;;4.73;49.84;102582.69;5035107;28;20029;-65
2021/10/24 05:38:46;;;;;;;8.02;3.47;;;;;;;4.74;50.05;102584.41;5045679;28;20029;-63
2021/10/24 05:41:18;;;;;;;9.88;4.07;;;;;;;4.74;49.72;102578.38;5042525;28;20314;-64
2021/10/24 05:43:44;;;;;;;17.35;4.78;;;;;;;4.72;50.01;102578.38;5065421;28;20032;-64
2021/10/24 05:46:11;;;;;;;7.68;4.35;;;;;;;4.79;49.88;102580.19;5050404;28;20024;-64
2021/10/24 05:48:37;;;;;;;8.90;4.65;;;;;;;4.77;49.78;102571.53;5049490;28;20045;-64
2021/10/24 05:51:11;;;;;;;14.07;5.45;;;;;;;4.71;50.11;102568.84;5046651;28;20090;-65
2021/10/24 05:53:38;;;;;;;9.73;4.47;;;;;;;4.64;50.10;102567.03;5049729;28;20068;-65
2021/10/24 05:56:09;;;;;;;9.00;3.88;;;;;;;4.60;49.85;102567.84;5063904;28;20055;-64
2021/10/24 05:58:40;;;;;;;11.02;4.18;;;;;;;4.63;50.10;102563.59;5050014;28;20037;-64
2021/10/24 06:01:17;;;;;;;12.00;4.05;;;;;;;4.56;49.96;102560.91;5046111;28;20182;-64
2021/10/24 06:04:11;;;;;;;9.88;4.53;;;;;;;4.55;50.10;102561.75;5049468;28;20045;-64
2021/10/24 06:06:46;;;;;;;9.52;4.07;;;;;;;4.53;49.73;102560.88;5044783;28;20047;-63
2021/10/24 06:09:11;;;;;;;14.02;4.70;;;;;;;4.52;50.20;102565.19;5047802;28;20028;-64
2021/10/24 06:14:31;;;;;;;9.32;4.32;;;;;;;4.45;50.20;102570.25;5044116;28;20501;-65
2021/10/24 06:16:58;;;;;;;7.70;4.28;;;;;;;4.39;49.92;102569.34;5064886;28;20040;-65
2021/10/24 06:19:24;;;;;;;7.35;4.25;;;;;;;4.33;50.21;102563.22;5041505;28;20040;-65
2021/10/24 06:21:52;;;;;;;11.05;4.75;;;;;;;4.46;50.00;102564.25;5047000;28;20409;-62
2021/10/24 06:24:17;;;;;;;10.50;4.47;;;;;;;4.43;49.52;102555.59;5047291;28;20035;-67
2021/10/24 06:26:45;;;;;;;8.13;4.25;;;;;;;4.37;50.24;102560.69;5062821;28;20025;-65
2021/10/24 06:29:13;;;;;;;14.20;4.55;;;;;;;4.51;49.91;102554.81;5047185;28;20072;-65
2021/10/24 06:31:39;;;;;;;5.45;3.75;;;;;;;4.55;49.51;102556.59;5046784;28;20027;-69
2021/10/24 06:34:23;;;;;;;10.48;4.63;;;;;;;4.58;49.39;102556.59;5051910;28;20097;-65
2021/10/24 06:37:07;;;;;;;14.30;6.03;;;;;;;4.64;49.82;102559.28;5064361;28;20046;-65
2021/10/24 06:39:37;;;;;;;11.30;5.82;;;;;;;4.80;49.41;102562.91;5042250;28;20123;-66
2021/10/24 06:42:02;;;;;;;11.75;5.28;;;;;;;4.90;49.32;102558.72;5064442;28;20127;-65
2021/10/24 06:44:57;;;;;;;9.20;5.00;;;;;;;5.04;49.31;102555.44;5060332;28;20052;-65
2021/10/24 06:47:41;;;;;;;9.80;4.68;;;;;;;5.14;49.33;102556.38;5068492;28;20059;-65
2021/10/24 06:50:25;;;;;;;13.40;5.40;;;;;;;5.22;48.93;102552.16;5064745;28;20487;-65
2021/10/24 06:52:57;;;;;;;11.68;4.50;;;;;;;5.29;48.80;102553.06;5065918;28;20033;-65
2021/10/24 06:55:40;;;;;;;12.63;4.50;;;;;;;5.18;48.97;102547.78;5067950;28;20078;-65
2021/10/24 06:58:44;;;;;;;10.38;4.45;;;;;;;5.47;48.15;102547.16;5002844;28;20746;-65
2021/10/24 07:01:39;;;;;;;14.68;4.38;;;;;;;5.55;48.08;102545.53;4909014;28;20040;-65
2021/10/24 07:04:23;;;;;;;12.18;5.20;;;;;;;5.61;47.96;102550.75;5050040;28;20055;-66
2021/10/24 07:07:00;;;;;;;9.30;4.05;;;;;;;5.91;47.68;102551.81;5044622;28;20029;-65
2021/10/24 07:09:31;;;;;;;11.27;4.25;;;;;;;6.00;46.98;102559.66;5041723;28;20485;-66
2021/10/24 07:11:57;;;;;;;13.20;3.95;;;;;;;6.21;46.52;102550.25;5064029;28;20039;-66
2021/10/24 07:14:22;;;;;;;7.50;4.40;;;;;;;6.93;45.82;102555.72;5032715;28;20025;-65
2021/10/24 07:16:48;;;;;;;8.98;4.20;;;;;;;8.12;42.46;102547.06;5045851;28;20039;-65
2021/10/24 07:19:13;;;;;;;11.85;4.22;;;;;;;9.16;41.14;102552.63;5047093;28;20032;-66
2021/10/24 07:21:39;;;;;;;8.02;3.67;;;;;;;9.82;38.27;102554.72;5045472;28;20400;-66
2021/10/24 07:24:09;;;;;;;7.70;3.13;;;;;;;11.50;35.52;102549.84;5046424;28;20045;-64
2021/10/24 07:26:40;;;;;;;8.18;3.42;;;;;;;12.99;32.21;102545.13;5045686;28;20021;-64
2021/10/24 07:29:08;;;;;;;8.10;3.47;;;;;;;13.56;30.12;102546.31;5044826;28;20093;-64
2021/10/24 07:31:37;;;;;;;7.15;2.85;;;;;;;13.76;30.24;102543.22;5045947;28;20063;-65
2021/10/24 07:34:40;;;;;;;7.30;3.00;;;;;;;13.08;31.52;102547.53;5045878;28;20032;-64
2021/10/24 07:37:06;;;;;;;7.60;3.15;;;;;;;13.54;30.78;102545.53;5030050;28;20059;-64
2021/10/24 07:39:33;;;;;;;6.32;3.45;;;;;;;14.55;29.45;102536.63;5033605;28;20028;-65
2021/10/24 07:41:58;;;;;;;7.60;3.72;;;;;;;15.72;27.69;102538.06;5049496;28;20062;-64
2021/10/24 07:44:24;;;;;;;7.68;3.55;;;;;;;15.89;28.09;102538.31;5048141;28;20048;-65
2021/10/24 07:46:54;;;;;;;9.63;3.78;;;;;;;16.22;26.47;102538.03;5045061;28;20032;-65
2021/10/24 07:49:22;;;;;;;5.68;3.40;;;;;;;17.24;26.15;102538.38;5042199;28;20031;-64
2021/10/24 07:51:48;;;;;;;7.63;3.38;;;;;;;17.96;24.18;102531.78;5056372;28;20495;-65
2021/10/24 07:54:13;;;;;;;5.38;3.00;;;;;;;18.42;23.42;102534.94;5063171;28;20032;-65
2021/10/24 07:56:39;;;;;;;5.68;3.25;;;;;;;18.81;22.79;102536.63;5021475;28;20028;-68
2021/10/24 07:59:24;;;;;;;7.35;3.22;;;;;;;18.48;22.82;102531.16;5064028;28;20064;-65
2021/10/24 08:01:50;;;;;;;10.10;3.50;;;;;;;17.49;25.33;102537.34;5039865;28;20033;-65
2021/10/24 08:04:16;;;;;;;5.60;3.50;;;;;;;17.91;23.64;102538.19;5046610;28;20197;-64
2021/10/24 08:06:41;;;;;;;10.05;3.42;;;;;;;17.92;24.24;102532.84;5045606;28;20146;-65
2021/10/24 08:09:11;;;;;;;4.72;3.00;;;;;;;18.25;23.42;102532.22;5063214;28;20024;-65
2021/10/24 08:11:40;;;;;;;7.93;3.00;;;;;;;18.45;24.09;102529.53;5040440;28;20032;-65
2021/10/24 08:14:07;;;;;;;13.30;3.50;;;;;;;18.88;23.50;102540.72;5038022;28;20037;-65
2021/10/24 08:16:36;;;;;;;7.43;3.25;;;;;;;18.71;23.09;102530.06;5044707;28;20035;-64
2021/10/24 08:19:03;;;;;;;5.60;3.05;;;;;;;18.18;23.59;102530.78;5046131;28;20139;-64
2021/10/24 08:21:35;;;;;;;;;;;;;;;17.95;24.69;102529.19;5052585;28;20724;-65
2021/10/24 08:24:02;;;;;;;7.20;3.58;;;;;;;17.57;24.20;102529.97;5065929;28;20234;-64
2021/10/24 08:26:28;;;;;;;5.18;2.97;;;;;;;17.02;25.07;102522.59;5048036;28;20406;-66
2021/10/24 08:28:53;;;;;;;8.18;4.20;;;;;;;17.32;24.85;102514.28;5064637;28;20043;-65
2021/10/24 08:31:38;;;;;;;7.10;3.40;;;;;;;17.17;25.24;102521.06;5066695;28;20124;-64
2021/10/24 08:34:04;;;;;;;9.77;4.22;;;;;;;17.20;25.02;102520.06;5064222;28;20745;-65
2021/10/24 08:36:30;;;;;;;7.32;3.53;;;;;;;16.20;25.96;102524.03;5069488;28;20330;-65
2021/10/24 08:38:57;;;;;;;6.82;3.15;;;;;;;16.26;26.50;102521.16;5062084;28;20051;-64
2021/10/24 08:41:28;;;;;;;7.65;2.88;;;;;;;15.37;27.04;102516.41;5068255;28;20127;-65
2021/10/24 08:43:57;;;;;;;6.20;3.10;;;;;;;15.02;28.18;102517.59;5084911;28;20052;-66
2021/10/24 08:46:23;;;;;;;6.88;3.50;;;;;;;;;;5085924;28;20012;-64
2021/10/24 08:48:49;;;;;;;6.50;2.75;;;;;;;14.62;29.45;102518.88;5086211;28;20104;-64
2021/10/24 08:51:16;;;;;;;9.23;3.13;;;;;;;14.31;29.04;102515.34;5069004;28;20120;-65
2021/10/24 08:53:46;;;;;;;7.55;4.53;;;;;;;14.08;29.80;102509.94;5063834;28;20040;-65
2021/10/24 08:56:23;;;;;;;8.80;3.08;;;;;;;14.02;30.51;102507.47;5065861;28;20052;-65
2021/10/24 08:58:50;;;;;;;7.80;3.50;;;;;;;13.80;30.43;102508.06;5061510;28;20485;-64
2021/10/24 09:01:16;;;;;;;7.47;4.05;;;;;;;13.89;30.32;102507.78;5046664;28;20089;-65
2021/10/24 09:04:13;;;;;;;4.90;3.08;;;;;;;14.56;29.87;102510.22;5063218;28;20045;-65
2021/10/24 09:06:55;;;;;;;10.85;3.03;;;;;;;14.61;28.68;102510.09;5038886;28;20067;-65
2021/10/24 09:09:24;;;;;;;8.70;3.47;;;;;;;15.02;28.54;102507.91;5045748;28;20040;-66
2021/10/24 09:12:04;;;;;;;6.40;2.70;;;;;;;14.56;29.41;102504.13;5063478;28;20060;-65
2021/10/24 09:14:48;;;;;;;4.38;3.20;;;;;;;14.52;29.24;102502.47;5045734;28;20519;-65
2021/10/24 09:17:24;;;;;;;8.27;3.75;;;;;;;14.30;29.27;102494.34;5044026;28;20064;-65
2021/10/24 09:19:58;;;;;;;5.05;3.00;;;;;;;14.29;29.11;102495.28;5064593;28;20052;-64
2021/10/24 09:22:30;;;;;;;5.50;3.53;;;;;;;15.03;29.77;102500.88;5058875;28;20049;-65
2021/10/24 09:25:07;;;;;;;5.88;2.95;;;;;;;14.89;28.55;102489.03;5066561;28;20028;-65
2021/10/24 09:27:45;;;;;;;3.28;2.22;;;;;;;15.00;28.11;102488.69;5060041;28;20436;-64
2021/10/24 09:30:25;;;;;;;4.38;2.38;;;;;;;15.04;28.54;102481.56;5064270;28;20516;-65
2021/10/24 09:33:09;;;;;;;4.30;2.45;;;;;;;14.75;28.76;102473.69;5065245;28;20144;-65
2021/10/24 09:35:44;;;;;;;9.32;3.60;;;;;;;14.12;29.40;102478.25;5039711;28;20032;-65
2021/10/24 09:38:30;;;;;;;6.25;2.90;;;;;;;14.65;29.58;102481.91;5038343;28;20040;-65
2021/10/24 09:41:02;;;;;;;8.68;4.05;;;;;;;14.75;29.20;102484.22;5061028;28;20051;-64
2021/10/24 09:43:33;;;;;;;9.85;4.43;;;;;;;14.67;29.64;102473.06;5062048;28;20109;-65
2021/10/24 09:45:59;;;;;;;6.45;3.00;;;;;;;15.34;28.65;102477.03;5063517;28;20044;-65
2021/10/24 09:48:52;;;;;;;5.50;2.78;;;;;;;15.09;29.21;102476.97;5056523;28;20041;-65
2021/10/24 09:51:18;;;;;;;9.95;3.60;;;;;;;15.80;27.53;102465.69;5045115;28;20040;-65
2021/10/24 09:53:47;;;;;;;5.82;2.72;;;;;;;15.88;27.27;102465.41;5064973;28;20040;-65
2021/10/24 09:56:18;;;;;;;5.00;2.63;;;;;;;15.94;26.89;102462.53;5063709;28;20752;-66
2021/10/24 09:58:51;;;;;;;4.43;2.28;;;;;;;15.98;27.36;102465.94;5064065;28;20071;-64
2021/10/24 10:01:19;;;;;;;7.05;2.90;;;;;;;15.73;27.54;102463.34;5064189;28;20065;-65
2021/10/24 10:03:45;;;;;;;6.80;1.73;;;;;;;15.88;28.10;102462.75;5062949;28;20086;-65
2021/10/24 10:06:11;;;;;;;4.47;2.13;;;;;;;16.66;27.89;102456.25;5064537;28;20109;-65
2021/10/24 10:08:43;;;;;;;5.28;2.50;;;;;;;16.04;27.65;102459.59;5063134;28;20033;-65
2021/10/24 10:11:09;;;;;;;7.03;2.90;;;;;;;16.49;26.72;102459.59;5063422;28;20024;-66
2021/10/24 10:13:40;;;;;;;4.57;2.45;;;;;;;16.45;26.83;102454.50;5063311;28;20040;-66
2021/10/24 10:16:14;;;;;;;10.40;4.75;;;;;;;15.89;27.84;102453.09;5064041;28;20114;-65
2021/10/24 10:18:55;;;;;;;5.00;2.85;;;;;;;15.62;27.99;102450.56;5063548;28;20040;-66
2021/10/24 10:21:32;;;;;;;7.53;2.75;;;;;;;15.84;27.09;102437.44;5064594;28;20036;-65
2021/10/24 10:23:59;;;;;;;6.78;2.78;;;;;;;15.85;27.23;102436.53;5062533;28;20040;-66
2021/10/24 10:26:30;;;;;;;4.20;2.80;;;;;;;15.82;27.37;102430.50;5067987;28;20509;-65
2021/10/24 10:28:55;;;;;;;5.28;2.55;;;;;;;15.56;27.24;102434.97;5062408;28;20101;-67
2021/10/24 10:31:21;;;;;;;4.50;2.58;;;;;;;15.10;29.00;102433.91;5041495;28;20020;-66
2021/10/24 10:34:02;;;;;;;7.15;2.08;;;;;;;16.34;27.70;102423.25;5063908;28;20528;-66
2021/10/24 10:36:47;;;;;;;5.10;2.20;;;;;;;16.44;26.80;102421.09;5045788;28;20036;-66
2021/10/24 10:39:30;;;;;;;3.78;2.05;;;;;;;16.59;26.93;102418.69;5044279;28;20063;-66
2021/10/24 10:42:01;;;;;;;5.95;2.00;;;;;;;16.20;26.06;102423.81;5063739;28;20048;-65
2021/10/24 10:44:26;;;;;;;6.78;2.25;;;;;;;15.68;27.53;102423.97;5044643;28;20138;-65
2021/10/24 10:46:52;;;;;;;3.78;2.53;;;;;;;15.54;27.17;102421.84;5063334;28;20050;-65
2021/10/24 10:49:21;;;;;;;4.65;2.33;;;;;;;15.48;28.22;102403.63;5062735;28;20020;-67
2021/10/24 10:51:46;;;;;;;4.40;1.88;;;;;;;16.12;27.80;102408.25;5062491;28;20717;-66
2021/10/24 10:54:12;;;;;;;6.90;3.90;;;;;;;16.23;26.83;102407.84;5062399;28;20032;-66
2021/10/24 10:56:46;;;;;;;9.15;2.55;;;;;;;15.88;26.67;102406.53;5062201;28;20138;-66
2021/10/24 10:59:13;;;;;;;5.00;2.65;;;;;;;14.92;27.79;102402.03;5037847;28;20044;-67
2021/10/24 11:01:39;;;;;;;5.05;1.95;;;;;;;15.12;28.38;102397.88;5063483;28;20036;-66
2021/10/24 11:04:08;;;;;;;3.53;2.40;;;;;;;15.70;27.22;102390.50;5062211;28;20044;-65
2021/10/24 11:06:33;;;;;;;3.65;1.75;;;;;;;16.06;27.22;102394.44;5041094;28;20362;-65
2021/10/24 11:09:01;;;;;;;3.15;1.95;;;;;;;16.26;26.95;102391.88;5047883;28;20048;-65
2021/10/24 11:11:36;;;;;;;5.70;1.70;;;;;;;16.10;26.41;102390.78;5062172;28;20051;-66
2021/10/24 11:14:02;;;;;;;7.03;1.95;;;;;;;16.13;26.02;102388.00;5062587;28;20118;-68
2021/10/24 11:16:34;;;;;;;4.53;2.17;;;;;;;15.51;27.89;102390.34;5043883;28;20090;-66
2021/10/24 11:19:00;;;;;;;3.85;1.77;;;;;;;16.23;27.01;102389.38;5062805;28;20119;-65
2021/10/24 11:21:30;;;;;;;6.07;1.77;;;;;;;15.82;26.72;102383.03;5065260;28;20088;-65
2021/10/24 11:23:59;;;;;;;4.78;1.83;;;;;;;15.39;26.97;102380.25;5038770;28;20047;-65
2021/10/24 11:26:25;;;;;;;3.28;2.00;;;;;;;14.59;28.06;102392.66;5038736;28;20056;-65
2021/10/24 11:28:51;;;;;;;6.00;3.08;;;;;;;14.95;28.13;102391.41;5062199;28;20037;-65
2021/10/24 11:31:20;;;;;;;5.20;1.60;;;;;;;15.50;27.12;102375.44;5065157;28;20517;-66
2021/10/24 11:33:50;;;;;;;7.45;2.35;;;;;;;15.41;27.85;102378.41;5059727;28;20032;-66
2021/10/24 11:36:25;;;;;;;3.58;1.80;;;;;;;14.86;28.21;102380.34;5063780;28;20040;-65
2021/10/24 11:39:03;;;;;;;9.25;2.47;;;;;;;14.95;28.67;102374.78;5060977;28;20277;-65
2021/10/24 11:41:30;;;;;;;3.95;2.13;;;;;;;14.90;28.24;102372.31;5063173;28;20072;-66